Home > Products > Valid Products > TAF

000
FTUS42 KILM 282323
TAFMYR
TAF
KMYR 282323Z 2900/2924 11008KT P6SM SCT025 SCT060 SCT160
     FM290400 04005KT P6SM SCT015 SCT070 SCT150
      TEMPO 2910/2914 BKN009
     FM291400 10009KT P6SM SCT020 SCT070 SCT140
      AMD LTD TO CLD VIS AND WIND 2904/2911=



000
FTUS42 KILM 282323
TAFILM
TAF
KILM 282323Z 2900/2924 11007KT P6SM SCT025 SCT160 BKN250
     FM290200 06004KT P6SM SCT020 SCT070 SCT150
      TEMPO 2910/2913 BKN015
     FM291300 08008KT P6SM SCT020 SCT070 SCT140=



000
FTUS42 KILM 282323
TAFFLO
TAF
KFLO 282323Z 2900/2924 11007KT P6SM FEW030 SCT060 BKN120
     FM290300 VRB03KT P6SM SCT110 SCT250
      TEMPO 2909/2912 3SM BR
     FM291500 10005KT P6SM BKN060=



000
FTUS42 KILM 282323
TAFCRE
TAF
KCRE 282323Z 2900/2924 12008KT P6SM SCT025 SCT060 SCT160
     FM290400 06004KT P6SM SCT020 SCT070 SCT150
      TEMPO 2910/2914 BKN012
     FM291400 10009KT P6SM SCT020 SCT070 SCT140=



000
FTUS42 KILM 282323
TAFLBT
TAF
KLBT 282323Z 2900/2924 12007KT P6SM FEW030 SCT060 SCT120
     FM290300 VRB03KT P6SM SCT110 SCT250
      TEMPO 2909/2912 3SM BR
     FM291500 11007KT P6SM BKN060=



000
FTUS42 KILM 281725
TAFCRE
TAF
KCRE 281725Z 2818/2918 12010KT P6SM SCT030 SCT060 SCT160
     FM290400 06004KT P6SM FEW070 SCT150
     FM291300 09008KT P6SM SCT025 SCT070 SCT140=



000
FTUS42 KILM 281725
TAFLBT
TAF
KLBT 281725Z 2818/2918 12009KT P6SM SCT035 SCT120
     FM290300 VRB03KT P6SM SCT110
      TEMPO 2909/2912 3SM BR
     FM291500 11005KT P6SM BKN060=



000
FTUS42 KILM 281725
TAFILM
TAF
KILM 281725Z 2818/2918 11008KT P6SM SCT030 SCT060 SCT160
     FM290200 06004KT P6SM FEW070 SCT150
     FM291300 08008KT P6SM SCT025 SCT070 SCT140=



000
FTUS42 KILM 281725
TAFFLO
TAF
KFLO 281725Z 2818/2918 11007KT P6SM SCT035 SCT120
     FM290300 VRB03KT P6SM SCT110
      TEMPO 2909/2912 3SM BR
     FM291500 10005KT P6SM BKN060=



000
FTUS42 KILM 281725
TAFMYR
TAF
KMYR 281725Z 2818/2918 11011KT P6SM SCT025 SCT060 SCT160
     FM290400 04005KT P6SM FEW070 SCT150
     FM291300 08009KT P6SM SCT025 SCT070 SCT140=



000
FTUS42 KILM 281458 AAA
TAFLBT
TAF AMD
KLBT 281458Z 2815/2912 11005KT P6SM SCT020 SCT120
     FM282000 12007KT P6SM SCT035 SCT120
     FM290300 VRB03KT P6SM SCT120
      TEMPO 2909/2912 3SM BR=



000
FTUS42 KILM 281457 AAA
TAFFLO
TAF AMD
KFLO 281457Z 2815/2912 11005KT P6SM SCT020 SCT120
     FM282000 12007KT P6SM SCT035 SCT120
     FM290300 VRB03KT P6SM SCT120
      TEMPO 2909/2912 3SM BR=



000
FTUS42 KILM 281139 CCA
TAFILM
TAF COR
KILM 281139Z 2812/2912 05007KT P6SM FEW020
      TEMPO 2814/2816 BKN025
     FM281600 11008KT P6SM SCT030 SCT060 SCT160
     FM290300 06004KT P6SM SCT060 SCT120=



000
FTUS42 KILM 281139 CCA
TAFILM
TAF COR
KILM 281139Z 2812/2912 05007KT P6SM FEW020
      TEMPO 2814/2816 BKN025
     FM281600 11008KT P6SM SCT030 SCT060 SCT160
     FM290300 06004KT P6SM SCT060 SCT120=



000
FTUS42 KILM 281123
TAFFLO
TAF
KFLO 281123Z 2812/2912 VRB05KT P6SM SCT020 SCT120
      TEMPO 2814/2816 BKN020
     FM282000 12007KT P6SM SCT035 SCT120
     FM290300 VRB03KT P6SM SCT120
      TEMPO 2909/2912 3SM BR=



000
FTUS42 KILM 281123
TAFCRE
TAF
KCRE 281123Z 2812/2912 04004KT P6SM FEW020
      TEMPO 2814/2816 10007KT BKN025
     FM281600 12010KT P6SM SCT030 SCT060 SCT160
     FM290400 06004KT P6SM SCT060 SCT120=



000
FTUS42 KILM 281123
TAFCRE
TAF
KCRE 281123Z 2812/2912 04004KT P6SM FEW020
      TEMPO 2814/2816 10007KT BKN025
     FM281600 12010KT P6SM SCT030 SCT060 SCT160
     FM290400 06004KT P6SM SCT060 SCT120=



000
FTUS42 KILM 281123
TAFLBT
TAF
KLBT 281123Z 2812/2912 VRB05KT P6SM SCT020 SCT120
      TEMPO 2814/2816 BKN020
     FM282000 12007KT P6SM SCT035 SCT120
     FM290300 VRB03KT P6SM SCT120
      TEMPO 2909/2912 3SM BR=



000
FTUS42 KILM 281123
TAFMYR
TAF
KMYR 281123Z 2812/2912 04005KT P6SM FEW015
      TEMPO 2814/2816 10008KT BKN020
     FM281600 12011KT P6SM SCT025 SCT060 SCT160
     FM290400 06004KT P6SM SCT060 SCT120=



000
FTUS42 KILM 281123
TAFILM
TAF
KILM 281123Z 2812/2912 05004KT P6SM FEW020
      TEMPO 2814/2816 BKN025
     FM281600 11008KT P6SM SCT030 SCT060 SCT160
     FM290300 06004KT P6SM SCT060 SCT120=



000
FTUS42 KILM 281123
TAFFLO
TAF
KFLO 281123Z 2812/2912 VRB05KT P6SM SCT020 SCT120
      TEMPO 2814/2816 BKN020
     FM282000 12007KT P6SM SCT035 SCT120
     FM290300 VRB03KT P6SM SCT120
      TEMPO 2909/2912 3SM BR=



000
FTUS42 KILM 281123
TAFILM
TAF
KILM 281123Z 2812/2912 05004KT P6SM FEW020
      TEMPO 2814/2816 BKN025
     FM281600 11008KT P6SM SCT030 SCT060 SCT160
     FM290300 06004KT P6SM SCT060 SCT120=



000
FTUS42 KILM 281123
TAFLBT
TAF
KLBT 281123Z 2812/2912 VRB05KT P6SM SCT020 SCT120
      TEMPO 2814/2816 BKN020
     FM282000 12007KT P6SM SCT035 SCT120
     FM290300 VRB03KT P6SM SCT120
      TEMPO 2909/2912 3SM BR=



000
FTUS42 KILM 281123
TAFMYR
TAF
KMYR 281123Z 2812/2912 04005KT P6SM FEW015
      TEMPO 2814/2816 10008KT BKN020
     FM281600 12011KT P6SM SCT025 SCT060 SCT160
     FM290400 06004KT P6SM SCT060 SCT120=



000
FTUS42 KILM 280522
TAFCRE
TAF
KCRE 280522Z 2806/2906 05003KT P6SM SCT020 SCT060 SCT150
      TEMPO 2807/2811 4SM BR SCT010
     FM281400 10008KT P6SM SCT020 SCT050 SCT130=



000
FTUS42 KILM 280522
TAFMYR
TAF
KMYR 280522Z 2806/2906 05003KT P6SM SCT020 SCT060 SCT150
      TEMPO 2809/2811 5SM BR SCT010
     FM281400 10008KT P6SM SCT020 SCT050 SCT130
      AMD LTD TO CLD VIS AND WIND TIL 281100=



000
FTUS42 KILM 280522
TAFILM
TAF
KILM 280522Z 2806/2906 05003KT P6SM SCT020 SCT060 SCT150
      TEMPO 2809/2811 5SM BR SCT010
     FM281400 09007KT P6SM SCT020 SCT050 SCT130
     FM282000 10008KT P6SM VCTS SCT045CB=



000
FTUS42 KILM 280522
TAFFLO
TAF
KFLO 280522Z 2806/2906 VRB03KT P6SM FEW060 BKN120
      TEMPO 2809/2812 3SM BR SCT006
     FM281300 10004KT P6SM SCT020=



000
FTUS42 KILM 280522
TAFLBT
TAF
KLBT 280522Z 2806/2906 VRB03KT P6SM FEW060 BKN120
      TEMPO 2809/2812 4SM BR SCT006
     FM281300 10004KT P6SM SCT020
     FM282000 10006KT P6SM VCTS SCT050CB=



000
FTUS42 KILM 280522
TAFILM
TAF
KILM 280522Z 2806/2906 05003KT P6SM SCT020 SCT060 SCT150
      TEMPO 2809/2811 5SM BR SCT010
     FM281400 09007KT P6SM SCT020 SCT050 SCT130
     FM282000 10008KT P6SM VCTS SCT045CB=



000
FTUS42 KILM 280522
TAFFLO
TAF
KFLO 280522Z 2806/2906 VRB03KT P6SM FEW060 BKN120
      TEMPO 2809/2812 3SM BR SCT006
     FM281300 10004KT P6SM SCT020=



000
FTUS42 KILM 280522
TAFMYR
TAF
KMYR 280522Z 2806/2906 05003KT P6SM SCT020 SCT060 SCT150
      TEMPO 2809/2811 5SM BR SCT010
     FM281400 10008KT P6SM SCT020 SCT050 SCT130
      AMD LTD TO CLD VIS AND WIND TIL 281100=



000
FTUS42 KILM 280522
TAFCRE
TAF
KCRE 280522Z 2806/2906 05003KT P6SM SCT020 SCT060 SCT150
      TEMPO 2807/2811 4SM BR SCT010
     FM281400 10008KT P6SM SCT020 SCT050 SCT130=



000
FTUS42 KILM 280522
TAFLBT
TAF
KLBT 280522Z 2806/2906 VRB03KT P6SM FEW060 BKN120
      TEMPO 2809/2812 4SM BR SCT006
     FM281300 10004KT P6SM SCT020
     FM282000 10006KT P6SM VCTS SCT050CB=



000
FTUS42 KILM 272320
TAFCRE
TAF
KCRE 272320Z 2800/2824 12008KT P6SM SCT030 SCT060
     FM280300 05003KT P6SM SCT020 SCT060 SCT150
      TEMPO 2807/2811 3SM BR SCT010
     FM281400 10008KT P6SM SCT020 SCT050 SCT130=



000
FTUS42 KILM 272320
TAFLBT
TAF
KLBT 272320Z 2800/2824 11007KT P6SM SCT045 SCT060
     FM280300 VRB03KT P6SM FEW060 SCT150
      TEMPO 2809/2812 3SM BR SCT006
     FM281300 10004KT P6SM SCT020=



000
FTUS42 KILM 272320
TAFCRE
TAF
KCRE 272320Z 2800/2824 12008KT P6SM SCT030 SCT060
     FM280300 05003KT P6SM SCT020 SCT060 SCT150
      TEMPO 2807/2811 3SM BR SCT010
     FM281400 10008KT P6SM SCT020 SCT050 SCT130=



000
FTUS42 KILM 272320
TAFILM
TAF
KILM 272320Z 2800/2824 12006KT P6SM SCT030 SCT050
     FM280300 05003KT P6SM SCT020 SCT060 SCT150
      TEMPO 2809/2811 5SM BR SCT010
     FM281400 09007KT P6SM SCT020 SCT050 SCT130=



000
FTUS42 KILM 272320
TAFFLO
TAF
KFLO 272320Z 2800/2824 12007KT P6SM SCT035
     FM280300 VRB03KT P6SM FEW060 SCT150
      TEMPO 2809/2812 3SM BR SCT006
     FM281300 10004KT P6SM SCT020=



000
FTUS42 KILM 272320
TAFMYR
TAF
KMYR 272320Z 2800/2824 12010KT P6SM SCT020 SCT110
     FM280400 05003KT P6SM SCT020 SCT060 SCT150
      TEMPO 2809/2811 4SM BR SCT010
     FM281400 10008KT P6SM SCT020 SCT050 SCT130
      AMD LTD TO CLD VIS AND WIND TIL 281100=



000
FTUS42 KILM 272320
TAFMYR
TAF
KMYR 272320Z 2800/2824 12010KT P6SM SCT020 SCT110
     FM280400 05003KT P6SM SCT020 SCT060 SCT150
      TEMPO 2809/2811 4SM BR SCT010
     FM281400 10008KT P6SM SCT020 SCT050 SCT130
      AMD LTD TO CLD VIS AND WIND TIL 281100=



000
FTUS42 KILM 272320
TAFFLO
TAF
KFLO 272320Z 2800/2824 12007KT P6SM SCT035
     FM280300 VRB03KT P6SM FEW060 SCT150
      TEMPO 2809/2812 3SM BR SCT006
     FM281300 10004KT P6SM SCT020=



000
FTUS42 KILM 272320
TAFLBT
TAF
KLBT 272320Z 2800/2824 11007KT P6SM SCT045 SCT060
     FM280300 VRB03KT P6SM FEW060 SCT150
      TEMPO 2809/2812 3SM BR SCT006
     FM281300 10004KT P6SM SCT020=



000
FTUS42 KILM 272320
TAFILM
TAF
KILM 272320Z 2800/2824 12006KT P6SM SCT030 SCT050
     FM280300 05003KT P6SM SCT020 SCT060 SCT150
      TEMPO 2809/2811 5SM BR SCT010
     FM281400 09007KT P6SM SCT020 SCT050 SCT130=



000
FTUS42 KILM 271730
TAFCRE
TAF
KCRE 271730Z 2718/2818 12008KT P6SM SCT030 SCT060
     FM280300 05003KT P6SM SCT020 SCT060 SCT150
      TEMPO 2807/2811 3SM BR SCT010
     FM281400 10008KT P6SM SCT020 SCT050 SCT130=



000
FTUS42 KILM 271730
TAFLBT
TAF
KLBT 271730Z 2718/2818 11007KT P6SM SCT045 SCT060
     FM280300 VRB03KT P6SM FEW060 SCT150
      TEMPO 2809/2812 3SM BR SCT006
     FM281300 10004KT P6SM SCT020=



000
FTUS42 KILM 271730
TAFFLO
TAF
KFLO 271730Z 2718/2818 12007KT P6SM SCT035
     FM280300 VRB03KT P6SM FEW060 SCT150
      TEMPO 2809/2812 3SM BR SCT006
     FM281300 10004KT P6SM SCT020=



000
FTUS42 KILM 271730
TAFMYR
TAF
KMYR 271730Z 2718/2818 12010KT P6SM SCT020 SCT110
     FM280400 05003KT P6SM SCT020 SCT060 SCT150
      TEMPO 2809/2811 4SM BR SCT010
     FM281400 10008KT P6SM SCT020 SCT050 SCT130=



000
FTUS42 KILM 271730
TAFILM
TAF
KILM 271730Z 2718/2818 10010KT P6SM SCT025 BKN035
     FM272100 12006KT P6SM SCT030 SCT050
     FM280300 05003KT P6SM SCT020 SCT060 SCT150
      TEMPO 2809/2811 5SM BR SCT010
     FM281400 09007KT P6SM SCT020 SCT050 SCT130=



000
FTUS42 KILM 271414 AAA
TAFMYR
TAF AMD
KMYR 271414Z 2714/2812 09005KT P6SM SCT015 SCT025 SCT050
      TEMPO 2714/2716 SCT015 BKN025
     FM271600 11010KT P6SM SCT030 SCT060
     FM280400 05003KT P6SM SCT020 SCT060 SCT150=



000
FTUS42 KILM 271413 AAA
TAFLBT
TAF AMD
KLBT 271413Z 2714/2812 13004KT P6SM SCT015 SCT025
      TEMPO 2714/2716 SCT015 BKN025
     FM271800 11007KT P6SM SCT030
     FM280300 VRB03KT P6SM FEW060 SCT150
      TEMPO 2809/2812 3SM BR=



000
FTUS42 KILM 271410 AAA
TAFFLO
TAF AMD
KFLO 271410Z 2714/2812 06004KT P6SM SCT018
      TEMPO 2714/2715 BKN018
     FM271800 11007KT P6SM SCT030
     FM280300 VRB03KT P6SM FEW060 SCT150
      TEMPO 2809/2812 3SM BR=



000
FTUS42 KILM 271410 AAA
TAFFLO
TAF AMD
KFLO 271410Z 2714/2812 06004KT P6SM SCT018
      TEMPO 2714/2715 BKN018
     FM271800 11007KT P6SM SCT030
     FM280300 VRB03KT P6SM FEW060 SCT150
      TEMPO 2809/2812 3SM BR=



000
FTUS42 KILM 271344 AAA
TAFILM
TAF AMD
KILM 271344Z 2714/2812 08007KT P6SM VCSH SCT015 BKN025 BKN060
     FM271600 10008KT P6SM SCT030 SCT060
     FM280300 05003KT P6SM SCT020 SCT060 SCT150=



000
FTUS42 KILM 271202 CCA
TAFILM
TAF COR
KILM 271202Z 2712/2812 06004KT P6SM VCSH FEW025 BKN050
     FM271600 10007KT P6SM SCT030 SCT060
     FM280300 05003KT P6SM SCT020 SCT060 SCT150=



000
FTUS42 KILM 271202 CCA
TAFILM
TAF COR
KILM 271202Z 2712/2812 06004KT P6SM VCSH FEW025 BKN050
     FM271600 10007KT P6SM SCT030 SCT060
     FM280300 05003KT P6SM SCT020 SCT060 SCT150=



000
FTUS42 KILM 271125
TAFCRE
TAF
KCRE 271125Z 2712/2812 05004KT P6SM SCT025 SCT040
     FM271600 12008KT P6SM SCT030 SCT060
     FM280300 05003KT P6SM SCT020 SCT060 SCT150=



000
FTUS42 KILM 271125
TAFLBT
TAF
KLBT 271125Z 2712/2812 06005KT P6SM SKC
      TEMPO 2712/2713 SCT006
     FM271800 11007KT P6SM SCT050
     FM280300 VRB03KT P6SM FEW060 SCT150
      TEMPO 2809/2812 3SM BR=



000
FTUS42 KILM 271125
TAFMYR
TAF
KMYR 271125Z 2712/2812 04005KT P6SM FEW025 SCT040
     FM271600 11010KT P6SM SCT030 SCT060
     FM280400 05003KT P6SM SCT020 SCT060 SCT150=



000
FTUS42 KILM 271125
TAFILM
TAF
KILM 271125Z 2712/2812 06004KT P6SM VCSH FEW025 BKN040
     FM271600 10007KT P6SM SCT030 SCT060
     FM280300 05003KT P6SM SCT020 SCT060 SCT150=



000
FTUS42 KILM 271125
TAFFLO
TAF
KFLO 271125Z 2712/2812 06005KT P6SM SKC
      TEMPO 2712/2713 SCT006
     FM271800 11007KT P6SM SCT050
     FM280300 VRB03KT P6SM FEW060 SCT150
      TEMPO 2809/2812 3SM BR=



000
FTUS42 KILM 271125
TAFCRE
TAF
KCRE 271125Z 2712/2812 05004KT P6SM SCT025 SCT040
     FM271600 12008KT P6SM SCT030 SCT060
     FM280300 05003KT P6SM SCT020 SCT060 SCT150=



000
FTUS42 KILM 271125
TAFILM
TAF
KILM 271125Z 2712/2812 06004KT P6SM VCSH FEW025 BKN040
     FM271600 10007KT P6SM SCT030 SCT060
     FM280300 05003KT P6SM SCT020 SCT060 SCT150=



000
FTUS42 KILM 271125
TAFMYR
TAF
KMYR 271125Z 2712/2812 04005KT P6SM FEW025 SCT040
     FM271600 11010KT P6SM SCT030 SCT060
     FM280400 05003KT P6SM SCT020 SCT060 SCT150=



000
FTUS42 KILM 271125
TAFFLO
TAF
KFLO 271125Z 2712/2812 06005KT P6SM SKC
      TEMPO 2712/2713 SCT006
     FM271800 11007KT P6SM SCT050
     FM280300 VRB03KT P6SM FEW060 SCT150
      TEMPO 2809/2812 3SM BR=



000
FTUS42 KILM 271031 AAB
TAFILM
TAF AMD
KILM 271031Z 2711/2806 06004KT P6SM FEW015 SCT060
     FM271600 10007KT P6SM SCT030 SCT060=



000
FTUS42 KILM 271031 AAB
TAFILM
TAF AMD
KILM 271031Z 2711/2806 06004KT P6SM FEW015 SCT060
     FM271600 10007KT P6SM SCT030 SCT060=



000
FTUS42 KILM 271030 AAA
TAFCRE
TAF AMD
KCRE 271030Z 2711/2806 05004KT P6SM FEW015 SCT060
     FM271600 12008KT P6SM SCT030 SCT060=



000
FTUS42 KILM 271030 AAA
TAFCRE
TAF AMD
KCRE 271030Z 2711/2806 05004KT P6SM FEW015 SCT060
     FM271600 12008KT P6SM SCT030 SCT060=



000
FTUS42 KILM 271029 AAA
TAFLBT
TAF AMD
KLBT 271029Z 2710/2806 06004KT P6SM SCT080
     FM271800 11007KT P6SM SCT050=



000
FTUS42 KILM 271029 AAA
TAFLBT
TAF AMD
KLBT 271029Z 2710/2806 06004KT P6SM SCT080
     FM271800 11007KT P6SM SCT050=



000
FTUS42 KILM 271029 AAA
TAFMYR
TAF AMD
KMYR 271029Z 2710/2806 04005KT P6SM FEW015 SCT060
     FM271600 11010KT P6SM SCT030 SCT060
      AMD LTD TO CLD VIS AND WIND TIL 271100=



000
FTUS42 KILM 271028 AAA
TAFFLO
TAF AMD
KFLO 271028Z 2710/2806 06005KT P6SM SKC
     FM271800 11007KT P6SM SCT050=



000
FTUS42 KILM 271028 AAA
TAFFLO
TAF AMD
KFLO 271028Z 2710/2806 06005KT P6SM SKC
     FM271800 11007KT P6SM SCT050=



000
FTUS42 KILM 270520
TAFILM
TAF
KILM 270520Z 2706/2806 06004KT P6SM FEW015 SCT060
      TEMPO 2708/2711 4SM BR
     FM271600 10007KT P6SM SCT030 SCT060=



000
FTUS42 KILM 270520
TAFLBT
TAF
KLBT 270520Z 2706/2806 VRB03KT P6SM FEW060
     FM270700 00000KT 4SM BR SKC
      TEMPO 2708/2712 1/2SM FG VV002
     FM271300 12007KT P6SM SCT050=



000
FTUS42 KILM 270520
TAFCRE
TAF
KCRE 270520Z 2706/2806 05004KT P6SM FEW015 SCT060
      TEMPO 2708/2711 4SM BR
     FM271600 12008KT P6SM SCT030 SCT060=



000
FTUS42 KILM 270520
TAFILM
TAF
KILM 270520Z 2706/2806 06004KT P6SM FEW015 SCT060
      TEMPO 2708/2711 4SM BR
     FM271600 10007KT P6SM SCT030 SCT060=



000
FTUS42 KILM 270520
TAFLBT
TAF
KLBT 270520Z 2706/2806 VRB03KT P6SM FEW060
     FM270700 00000KT 4SM BR SKC
      TEMPO 2708/2712 1/2SM FG VV002
     FM271300 12007KT P6SM SCT050=



000
FTUS42 KILM 270520
TAFCRE
TAF
KCRE 270520Z 2706/2806 05004KT P6SM FEW015 SCT060
      TEMPO 2708/2711 4SM BR
     FM271600 12008KT P6SM SCT030 SCT060=



000
FTUS42 KILM 270520
TAFMYR
TAF
KMYR 270520Z 2706/2806 04005KT P6SM FEW015 SCT060
      TEMPO 2708/2711 5SM BR
     FM271600 11010KT P6SM SCT030 SCT060
      AMD LTD TO CLD VIS AND WIND TIL 271100=



000
FTUS42 KILM 270520
TAFFLO
TAF
KFLO 270520Z 2706/2806 VRB03KT P6SM FEW060
     FM270800 00000KT 4SM BR SKC
      TEMPO 2709/2711 2SM BR SCT002
     FM271300 12007KT P6SM SCT050=



000
FTUS42 KILM 270520
TAFMYR
TAF
KMYR 270520Z 2706/2806 04005KT P6SM FEW015 SCT060
      TEMPO 2708/2711 5SM BR
     FM271600 11010KT P6SM SCT030 SCT060
      AMD LTD TO CLD VIS AND WIND TIL 271100=



000
FTUS42 KILM 270520
TAFFLO
TAF
KFLO 270520Z 2706/2806 VRB03KT P6SM FEW060
     FM270800 00000KT 4SM BR SKC
      TEMPO 2709/2711 2SM BR SCT002
     FM271300 12007KT P6SM SCT050=



000
FTUS42 KILM 262320
TAFFLO
TAF
KFLO 262320Z 2700/2724 07008KT P6SM FEW035
     FM270200 VRB03KT P6SM FEW060
     FM270700 00000KT 4SM BR SKC
      TEMPO 2709/2711 1/2SM FG VV002
     FM271300 12007KT P6SM SCT050=



000
FTUS42 KILM 262320
TAFILM
TAF
KILM 262320Z 2700/2724 09010KT P6SM BKN070
     FM270400 06004KT P6SM FEW015 SCT060
      TEMPO 2708/2711 4SM BR
     FM271600 10007KT P6SM SCT030 SCT060=



000
FTUS42 KILM 262320
TAFMYR
TAF
KMYR 262320Z 2700/2724 10010KT P6SM FEW030 SCT045
     FM270400 04005KT P6SM FEW015 SCT060
      TEMPO 2708/2711 5SM BR
     FM271600 11010KT P6SM SCT030 SCT060
      AMD LTD TO CLD VIS AND WIND TIL 271100=



000
FTUS42 KILM 262320
TAFLBT
TAF
KLBT 262320Z 2700/2724 07008KT P6SM FEW035
     FM270200 VRB03KT P6SM FEW060
     FM270700 00000KT 4SM BR SKC
      TEMPO 2708/2712 1/2SM FG VV002
     FM271300 12007KT P6SM SCT050=



000
FTUS42 KILM 262320
TAFILM
TAF
KILM 262320Z 2700/2724 09010KT P6SM BKN070
     FM270400 06004KT P6SM FEW015 SCT060
      TEMPO 2708/2711 4SM BR
     FM271600 10007KT P6SM SCT030 SCT060=



000
FTUS42 KILM 262320
TAFFLO
TAF
KFLO 262320Z 2700/2724 07008KT P6SM FEW035
     FM270200 VRB03KT P6SM FEW060
     FM270700 00000KT 4SM BR SKC
      TEMPO 2709/2711 1/2SM FG VV002
     FM271300 12007KT P6SM SCT050=



000
FTUS42 KILM 262320
TAFLBT
TAF
KLBT 262320Z 2700/2724 07008KT P6SM FEW035
     FM270200 VRB03KT P6SM FEW060
     FM270700 00000KT 4SM BR SKC
      TEMPO 2708/2712 1/2SM FG VV002
     FM271300 12007KT P6SM SCT050=



000
FTUS42 KILM 262320
TAFCRE
TAF
KCRE 262320Z 2700/2724 10009KT P6SM FEW030 SCT045
     FM270200 05004KT P6SM FEW015 SCT060
      TEMPO 2708/2711 4SM BR
     FM271600 12008KT P6SM SCT030 SCT060=



000
FTUS42 KILM 262320
TAFCRE
TAF
KCRE 262320Z 2700/2724 10009KT P6SM FEW030 SCT045
     FM270200 05004KT P6SM FEW015 SCT060
      TEMPO 2708/2711 4SM BR
     FM271600 12008KT P6SM SCT030 SCT060=



000
FTUS42 KILM 262320
TAFMYR
TAF
KMYR 262320Z 2700/2724 10010KT P6SM FEW030 SCT045
     FM270400 04005KT P6SM FEW015 SCT060
      TEMPO 2708/2711 5SM BR
     FM271600 11010KT P6SM SCT030 SCT060
      AMD LTD TO CLD VIS AND WIND TIL 271100=



000
FTUS42 KILM 261721
TAFILM
TAF
KILM 261721Z 2618/2718 09010KT P6SM FEW030 SCT045
     FM270400 06004KT P6SM FEW015 SCT060
     FM271600 10007KT P6SM SCT030 SCT060=



000
FTUS42 KILM 261721
TAFLBT
TAF
KLBT 261721Z 2618/2718 07008KT P6SM FEW035
     FM270200 VRB03KT P6SM FEW060
      TEMPO 2709/2712 3SM BR SCT005=



000
FTUS42 KILM 261721
TAFFLO
TAF
KFLO 261721Z 2618/2718 07008KT P6SM FEW035
     FM270200 VRB03KT P6SM FEW060
      TEMPO 2709/2712 3SM BR SCT005=



000
FTUS42 KILM 261721
TAFCRE
TAF
KCRE 261721Z 2618/2718 10009KT P6SM FEW030 SCT045
     FM270200 05004KT P6SM FEW015 SCT060
     FM271600 12008KT P6SM SCT030 SCT060=



000
FTUS42 KILM 261721
TAFMYR
TAF
KMYR 261721Z 2618/2718 10010KT P6SM FEW030 SCT045
     FM270400 04005KT P6SM FEW015 SCT060
     FM271600 11010KT P6SM SCT030 SCT060=



000
FTUS42 KILM 261721
TAFFLO
TAF
KFLO 261721Z 2618/2718 07008KT P6SM FEW035
     FM270200 VRB03KT P6SM FEW060
      TEMPO 2709/2712 3SM BR SCT005=



000
FTUS42 KILM 261721
TAFLBT
TAF
KLBT 261721Z 2618/2718 07008KT P6SM FEW035
     FM270200 VRB03KT P6SM FEW060
      TEMPO 2709/2712 3SM BR SCT005=



000
FTUS42 KILM 261721
TAFILM
TAF
KILM 261721Z 2618/2718 09010KT P6SM FEW030 SCT045
     FM270400 06004KT P6SM FEW015 SCT060
     FM271600 10007KT P6SM SCT030 SCT060=



000
FTUS42 KILM 261721
TAFCRE
TAF
KCRE 261721Z 2618/2718 10009KT P6SM FEW030 SCT045
     FM270200 05004KT P6SM FEW015 SCT060
     FM271600 12008KT P6SM SCT030 SCT060=



000
FTUS42 KILM 261721
TAFMYR
TAF
KMYR 261721Z 2618/2718 10010KT P6SM FEW030 SCT045
     FM270400 04005KT P6SM FEW015 SCT060
     FM271600 11010KT P6SM SCT030 SCT060=



000
FTUS42 KILM 261159 CCA
TAFLBT
TAF COR
KLBT 261159Z 2612/2712 07008KT P6SM FEW035
     FM270200 VRB03KT P6SM SKC
      TEMPO 2709/2712 3SM BR=



000
FTUS42 KILM 261159 CCA
TAFLBT
TAF COR
KLBT 261159Z 2612/2712 07008KT P6SM FEW035
     FM270200 VRB03KT P6SM SKC
      TEMPO 2709/2712 3SM BR=



000
FTUS42 KILM 261158 CCA
TAFFLO
TAF COR
KFLO 261158Z 2612/2712 07008KT P6SM FEW035
     FM270200 VRB03KT P6SM SKC
      TEMPO 2709/2712 3SM BR=



000
FTUS42 KILM 261158 CCA
TAFFLO
TAF COR
KFLO 261158Z 2612/2712 07008KT P6SM FEW035
     FM270200 VRB03KT P6SM SKC
      TEMPO 2709/2712 3SM BR=



000
FTUS42 KILM 261120
TAFCRE
TAF
KCRE 261120Z 2612/2712 10009KT P6SM SCT030
     FM270200 05004KT P6SM FEW015=



000
FTUS42 KILM 261120
TAFMYR
TAF
KMYR 261120Z 2612/2712 10010KT P6SM SCT030
     FM270400 05004KT P6SM FEW015=



000
FTUS42 KILM 261120
TAFFLO
TAF
KFLO 261120Z 2612/2712 07008KT P6SM FEW035
     FM270200 VRB03KT P6SM SKC=



000
FTUS42 KILM 261120
TAFLBT
TAF
KLBT 261120Z 2612/2712 07008KT P6SM FEW035
     FM270200 VRB03KT P6SM SKC=



000
FTUS42 KILM 261120
TAFILM
TAF
KILM 261120Z 2612/2712 09009KT P6SM SCT030
     FM270400 05004KT P6SM SKC=



000
FTUS42 KILM 260520
TAFMYR
TAF
KMYR 260520Z 2606/2706 06006KT P6SM SKC
     FM261300 06008KT P6SM SCT250
     FM262100 11006KT P6SM SKC
      AMD LTD TO CLD VIS AND WIND TIL 261100=



000
FTUS42 KILM 260520
TAFLBT
TAF
KLBT 260520Z 2606/2706 VRB03KT P6SM SKC
     FM261300 06006KT P6SM SCT250=



000
FTUS42 KILM 260520
TAFFLO
TAF
KFLO 260520Z 2606/2706 12006KT P6SM SKC
     FM261300 07006KT P6SM SCT250=



000
FTUS42 KILM 260520
TAFCRE
TAF
KCRE 260520Z 2606/2706 07005KT P6SM SKC
     FM261300 05008KT P6SM SCT250
     FM262100 11006KT P6SM FEW060=



000
FTUS42 KILM 260520
TAFILM
TAF
KILM 260520Z 2606/2706 05005KT P6SM SKC
     FM261300 04008KT P6SM SCT250
     FM262100 11006KT P6SM SKC=



    US Dept of Commerce
    National Oceanic and Atmospheric Administration
    National Weather Service
    1325 East West Highway
    Silver Spring, MD 20910
    Page Author: NWS Internet Services Team
Disclaimer
Information Quality
Credits
Glossary
Privacy Policy
Freedom of Information Act (FOIA)
About Us
Career Opportunities